Time;durP1;ratioP1;P1;durP2;ratioP2;P2;SDS_P1;SDS_P2;PMS_P1;PMS_P2;Temp;Humidity;BMP_temperature;BMP_pressure;BME280_temperature;BME280_humidity;BME280_pressure;Samples;Min_cycle;Max_cycle;Signal;HPM_P1;HPM_P2
2023/11/14 00:01:13;;;;;;;13.15;2.42;;;;;;;18.17;51.32;100113.00;5012110;28;20428;-65
2023/11/14 00:03:38;;;;;;;15.55;3.10;;;;;;;18.17;51.77;100115.72;5013608;28;20034;-64
2023/11/14 00:06:04;;;;;;;13.52;3.45;;;;;;;18.17;51.16;100115.72;5022174;28;20091;-64
2023/11/14 00:08:29;;;;;;;16.90;2.50;;;;;;;18.18;51.74;100111.97;5028951;28;20089;-64
2023/11/14 00:10:55;;;;;;;11.38;2.88;;;;;;;18.20;51.20;100128.88;5026932;28;20448;-64
2023/11/14 00:13:20;;;;;;;17.10;2.25;;;;;;;18.20;51.83;100118.03;5032526;28;20103;-64
2023/11/14 00:15:46;;;;;;;16.08;2.70;;;;;;;18.20;51.46;100134.31;5032202;28;20053;-65
2023/11/14 00:18:12;;;;;;;12.85;2.78;;;;;;;18.17;51.30;100123.84;5032263;28;20040;-65
2023/11/14 00:20:37;;;;;;;20.90;2.50;;;;;;;18.15;51.25;100131.31;5023792;28;20091;-64
2023/11/14 00:23:03;;;;;;;11.52;2.10;;;;;;;18.11;51.73;100119.22;5013387;28;20427;-64
2023/11/14 00:25:28;;;;;;;17.05;2.63;;;;;;;18.16;51.77;100128.44;5032227;28;20539;-65
2023/11/14 00:27:54;;;;;;;13.60;2.70;;;;;;;18.16;51.29;100133.84;5032388;28;20056;-65
2023/11/14 00:30:19;;;;;;;20.80;3.15;;;;;;;18.15;51.29;100143.00;5032426;28;20509;-65
2023/11/14 00:32:45;;;;;;;13.38;2.78;;;;;;;18.15;50.99;100142.16;4998226;28;20025;-65
2023/11/14 00:35:10;;;;;;;12.60;2.50;;;;;;;18.13;51.21;100136.97;5027634;28;20382;-59
2023/11/14 00:37:36;;;;;;;16.67;2.67;;;;;;;18.10;51.79;100133.78;5029871;28;20049;-58
2023/11/14 00:40:03;;;;;;;12.80;2.20;;;;;;;18.09;51.21;100116.69;5032686;28;20033;-59
2023/11/14 00:42:29;;;;;;;24.17;4.30;;;;;;;18.10;51.73;100125.66;5032998;28;20026;-59
2023/11/14 00:44:55;;;;;;;14.25;2.58;;;;;;;18.11;51.24;100132.75;5032814;28;20029;-58
2023/11/14 00:47:20;;;;;;;20.50;3.75;;;;;;;18.10;51.52;100133.78;5014941;28;20034;-58
2023/11/14 00:49:46;;;;;;;23.67;3.30;;;;;;;18.09;51.14;100148.41;5032748;28;20038;-59
2023/11/14 00:52:12;;;;;;;23.00;2.83;;;;;;;18.08;51.21;100144.00;5032850;28;20033;-58
2023/11/14 00:54:38;;;;;;;14.50;2.55;;;;;;;18.07;50.91;100136.88;5032857;28;20404;-58
2023/11/14 00:57:03;;;;;;;19.95;3.45;;;;;;;18.09;51.55;100142.97;5033315;28;20515;-58
2023/11/14 00:59:29;;;;;;;17.13;3.55;;;;;;;18.07;51.63;100128.75;5033999;28;20072;-59
2023/11/14 01:01:58;;;;;;;24.85;4.88;;;;;;;18.10;51.34;100133.78;5034393;28;20492;-58
2023/11/14 01:04:23;;;;;;;14.10;2.45;;;;;;;18.10;51.75;100139.22;5034922;28;20029;-59
2023/11/14 01:06:49;;;;;;;19.38;4.35;;;;;;;18.10;51.05;100133.78;5034866;28;20076;-58
2023/11/14 01:09:14;;;;;;;17.92;3.30;;;;;;;18.10;51.16;100141.91;5032714;28;20500;-58
2023/11/14 01:11:39;;;;;;;19.42;4.30;;;;;;;18.08;51.11;100138.56;5032533;28;20033;-59
2023/11/14 01:14:05;;;;;;;13.50;3.08;;;;;;;18.09;51.52;100134.84;5032477;28;20405;-58
2023/11/14 01:16:30;;;;;;;20.63;2.92;;;;;;;18.08;51.22;100138.56;5032345;28;20029;-58
2023/11/14 01:18:55;;;;;;;27.70;2.83;;;;;;;18.09;50.82;100140.25;5032248;28;20132;-59
2023/11/14 01:21:21;;;;;;;21.30;2.97;;;;;;;18.08;50.82;100135.88;5032050;28;20069;-58
2023/11/14 01:23:46;;;;;;;19.15;3.70;;;;;;;18.08;50.82;100130.44;5032378;28;20040;-58
2023/11/14 01:26:12;;;;;;;19.50;2.60;;;;;;;18.09;50.93;100134.84;5032355;28;20104;-58
2023/11/14 01:28:40;;;;;;;19.60;3.10;;;;;;;18.08;51.34;100144.84;5022209;28;20037;-58
2023/11/14 01:31:05;;;;;;;15.65;2.15;;;;;;;18.08;51.52;100144.00;5032981;28;20034;-59
2023/11/14 01:33:30;;;;;;;13.43;2.63;;;;;;;18.07;50.78;100139.59;5023503;28;20044;-58
2023/11/14 01:35:56;;;;;;;21.77;2.88;;;;;;;18.07;51.20;100150.44;5016177;28;20509;-58
2023/11/14 01:38:21;;;;;;;14.85;2.67;;;;;;;18.07;51.10;100145.84;5016011;28;20052;-58
2023/11/14 01:40:52;;;;;;;13.48;2.58;;;;;;;18.06;51.08;100165.03;5015885;28;20122;-59
2023/11/14 01:43:18;;;;;;;20.83;3.03;;;;;;;18.02;50.94;100160.00;5015932;28;20070;-58
2023/11/14 01:45:43;;;;;;;25.85;2.45;;;;;;;18.07;51.09;100158.56;5015997;28;20054;-58
2023/11/14 01:48:09;;;;;;;18.75;2.50;;;;;;;18.06;50.76;100170.47;5015787;28;20026;-59
2023/11/14 01:50:35;;;;;;;20.08;4.30;;;;;;;18.06;50.55;100181.31;4998246;28;20501;-58
2023/11/14 01:53:00;;;;;;;12.13;2.50;;;;;;;18.04;51.15;100163.34;4998140;28;20498;-58
2023/11/14 01:55:27;;;;;;;19.20;3.00;;;;;;;18.06;50.76;100175.88;4998208;28;20034;-58
2023/11/14 01:57:54;;;;;;;11.80;2.67;;;;;;;18.02;51.08;100176.25;5015622;28;20088;-58
2023/11/14 02:00:19;;;;;;;20.50;3.35;;;;;;;17.98;51.33;100185.81;5015516;28;20524;-58
2023/11/14 02:02:45;;;;;;;13.75;2.63;;;;;;;17.97;50.92;100183.28;5015470;28;20037;-58
2023/11/14 02:05:11;;;;;;;16.95;2.67;;;;;;;17.94;50.65;100189.94;5016184;28;20029;-58
2023/11/14 02:07:37;;;;;;;17.88;3.25;;;;;;;17.94;51.24;100203.50;4998170;28;20493;-59
2023/11/14 02:10:03;;;;;;;16.48;2.47;;;;;;;17.93;51.38;100193.69;5015720;28;20109;-58
2023/11/14 02:12:28;;;;;;;9.05;2.45;;;;;;;17.93;50.88;100192.81;4998104;28;20034;-59
2023/11/14 02:14:53;;;;;;;19.30;2.80;;;;;;;17.94;51.33;100206.22;5015283;28;20044;-59
2023/11/14 02:17:19;;;;;;;12.77;2.60;;;;;;;17.95;50.97;100207.88;5015105;28;20037;-59
2023/11/14 02:19:44;;;;;;;19.13;2.90;;;;;;;17.95;50.91;100218.69;5015086;28;20037;-58
2023/11/14 02:22:10;;;;;;;19.00;2.45;;;;;;;17.95;50.66;100213.28;5014967;28;20050;-58
2023/11/14 02:24:39;;;;;;;19.05;2.90;;;;;;;17.94;51.16;100222.47;5015087;28;20453;-59
2023/11/14 02:27:05;;;;;;;13.00;2.72;;;;;;;17.96;51.24;100224.97;4981126;28;20033;-59
2023/11/14 02:29:31;;;;;;;12.57;2.25;;;;;;;17.96;51.47;100223.09;4997740;28;20033;-59
2023/11/14 02:31:56;;;;;;;16.13;2.92;;;;;;;17.95;50.96;100213.28;5014854;28;20033;-58
2023/11/14 02:34:22;;;;;;;15.32;3.22;;;;;;;17.94;51.04;100216.19;5014721;28;20029;-59
2023/11/14 02:36:47;;;;;;;19.88;2.58;;;;;;;17.97;50.86;100227.50;5014748;28;20394;-58
2023/11/14 02:39:13;;;;;;;18.45;3.40;;;;;;;17.95;50.81;100224.13;5014957;28;20088;-58
2023/11/14 02:41:38;;;;;;;20.50;3.53;;;;;;;17.95;51.04;100234.97;5014842;28;20464;-59
2023/11/14 02:44:04;;;;;;;10.45;2.13;;;;;;;17.95;51.14;100234.97;5013982;28;20496;-58
2023/11/14 02:46:29;;;;;;;18.08;2.58;;;;;;;17.95;51.19;100232.25;4997191;28;20029;-59
2023/11/14 02:48:55;;;;;;;18.20;3.95;;;;;;;17.93;50.74;100245.16;5014729;28;20026;-59
2023/11/14 02:51:20;;;;;;;15.18;2.97;;;;;;;17.93;51.19;100244.31;5014496;28;20065;-58
2023/11/14 02:53:46;;;;;;;22.15;3.83;;;;;;;17.94;51.31;100227.03;5014680;28;20441;-59
2023/11/14 02:56:12;;;;;;;20.85;2.83;;;;;;;17.94;51.06;100241.44;5014462;28;20456;-59
2023/11/14 02:58:38;;;;;;;16.10;2.55;;;;;;;17.94;51.14;100238.72;5014587;28;20030;-59
2023/11/14 03:01:04;;;;;;;21.73;2.72;;;;;;;17.95;51.31;100232.25;5014366;28;20402;-59
2023/11/14 03:03:30;;;;;;;15.48;3.45;;;;;;;17.96;50.68;100236.66;5014767;28;20045;-59
2023/11/14 03:05:56;;;;;;;12.98;2.33;;;;;;;17.97;50.99;100246.47;5014785;28;20050;-58
2023/11/14 03:08:22;;;;;;;13.35;3.30;;;;;;;17.96;51.11;100242.06;5015287;28;20502;-58
2023/11/14 03:10:48;;;;;;;15.20;2.63;;;;;;;17.95;50.89;100237.69;5014395;28;20030;-59
2023/11/14 03:13:13;;;;;;;22.05;3.05;;;;;;;17.94;50.38;100249.56;5014474;28;20041;-58
2023/11/14 03:15:39;;;;;;;17.65;3.38;;;;;;;17.94;50.54;100249.56;5014236;28;20034;-58
2023/11/14 03:18:06;;;;;;;25.15;3.42;;;;;;;17.94;50.88;100255.00;5016734;28;20037;-59
2023/11/14 03:20:32;;;;;;;18.27;3.13;;;;;;;17.95;51.13;100248.50;5001953;28;20057;-59
2023/11/14 03:22:58;;;;;;;23.77;2.63;;;;;;;17.97;50.82;100243.75;5019869;28;20026;-58
2023/11/14 03:25:23;;;;;;;22.50;3.40;;;;;;;17.96;51.16;100252.91;5014453;28;20041;-58
2023/11/14 03:27:48;;;;;;;10.95;3.92;;;;;;;17.98;51.11;100244.56;5013910;28;20037;-58
2023/11/14 03:30:14;;;;;;;19.38;3.13;;;;;;;17.99;50.81;100241.69;5013990;28;20026;-58
2023/11/14 03:32:40;;;;;;;17.98;2.85;;;;;;;18.03;50.67;100256.53;5013735;28;20092;-58
2023/11/14 03:35:06;;;;;;;15.00;2.83;;;;;;;18.03;51.31;100242.97;5013856;28;20121;-58
2023/11/14 03:37:32;;;;;;;12.38;3.13;;;;;;;18.02;51.09;100252.16;5013668;28;20041;-58
2023/11/14 03:39:58;;;;;;;14.35;2.65;;;;;;;18.02;50.59;100245.88;5013755;28;20453;-59
2023/11/14 03:42:23;;;;;;;17.20;2.40;;;;;;;18.01;51.20;100245.03;4996264;28;20045;-59
2023/11/14 03:44:49;;;;;;;21.60;2.85;;;;;;;18.00;51.02;100247.97;5013541;28;20034;-58
2023/11/14 03:47:14;;;;;;;10.43;2.72;;;;;;;17.97;50.77;100249.19;5013538;28;20493;-59
2023/11/14 03:49:40;;;;;;;19.00;2.70;;;;;;;17.98;50.54;100261.69;5013484;28;20477;-60
2023/11/14 03:52:06;;;;;;;9.05;2.05;;;;;;;17.99;50.80;100263.38;5013357;28;20032;-59
2023/11/14 03:54:32;;;;;;;24.23;4.28;;;;;;;18.00;51.04;100265.06;5013388;28;20532;-58
2023/11/14 03:56:57;;;;;;;19.80;2.38;;;;;;;17.98;50.94;100260.84;5013301;28;20030;-59
2023/11/14 03:59:22;;;;;;;26.33;3.58;;;;;;;18.02;50.55;100252.16;5013474;28;20071;-58
2023/11/14 04:01:48;;;;;;;15.10;2.78;;;;;;;18.02;51.15;100243.19;5013726;28;20108;-59
2023/11/14 04:04:13;;;;;;;18.50;2.78;;;;;;;18.03;51.02;100253.00;5013540;28;20105;-59
2023/11/14 04:06:38;;;;;;;19.13;2.83;;;;;;;18.04;50.58;100244.66;5013497;28;20049;-59
2023/11/14 04:09:04;;;;;;;15.48;2.10;;;;;;;18.06;51.09;100246.34;5013265;28;20022;-58
2023/11/14 04:11:30;;;;;;;13.85;2.60;;;;;;;18.04;51.06;100244.66;5013452;28;20037;-59
2023/11/14 04:13:55;;;;;;;18.00;3.08;;;;;;;18.08;50.55;100247.84;5013558;28;20104;-59
2023/11/14 04:16:21;;;;;;;19.30;3.38;;;;;;;18.08;50.61;100233.44;5013196;28;20026;-58
2023/11/14 04:18:46;;;;;;;15.20;3.60;;;;;;;18.09;50.49;100235.13;5013089;28;20034;-58
2023/11/14 04:21:19;;;;;;;19.48;4.13;;;;;;;18.06;50.67;100236.34;5012868;28;20054;-59
2023/11/14 04:23:45;;;;;;;22.65;2.08;;;;;;;18.09;50.79;100251.41;5013112;28;20014;-58
2023/11/14 04:26:10;;;;;;;10.32;2.20;;;;;;;18.10;50.17;100231.38;5013073;28;20033;-58
2023/11/14 04:28:35;;;;;;;17.83;2.90;;;;;;;18.12;50.67;100261.84;5013227;28;20021;-59
2023/11/14 04:31:01;;;;;;;16.40;3.33;;;;;;;18.12;50.43;100262.66;4979548;28;20033;-59
2023/11/14 04:33:26;;;;;;;19.33;2.78;;;;;;;18.12;50.76;100251.00;5012929;28;20030;-58
2023/11/14 04:35:51;;;;;;;13.45;3.35;;;;;;;18.15;50.90;100256.88;5013295;28;20022;-59
2023/11/14 04:38:17;;;;;;;14.25;2.45;;;;;;;18.14;50.83;100260.63;4995614;28;20030;-58
2023/11/14 04:40:43;;;;;;;11.13;2.45;;;;;;;18.16;50.68;100252.28;5012939;28;20026;-58
2023/11/14 04:43:09;;;;;;;17.83;2.35;;;;;;;18.16;50.74;100247.72;5013090;28;20048;-59
2023/11/14 04:45:34;;;;;;;18.65;2.72;;;;;;;18.20;50.62;100243.56;5012894;28;20034;-58
2023/11/14 04:47:59;;;;;;;7.97;2.30;;;;;;;18.22;50.56;100232.56;5012675;28;20037;-59
2023/11/14 04:50:25;;;;;;;20.92;3.13;;;;;;;18.21;50.80;100233.56;4995282;28;20032;-58
2023/11/14 04:52:50;;;;;;;29.20;4.80;;;;;;;18.23;50.91;100236.94;5012742;28;20030;-59
2023/11/14 04:55:16;;;;;;;11.15;2.58;;;;;;;18.26;51.00;100242.81;5012914;28;20041;-58
2023/11/14 04:57:41;;;;;;;14.40;2.42;;;;;;;18.28;50.68;100243.47;5013112;28;20176;-58
2023/11/14 05:00:08;;;;;;;16.70;3.67;;;;;;;18.30;50.72;100232.41;5012903;28;20371;-58
2023/11/14 05:02:34;;;;;;;15.45;2.30;;;;;;;18.31;51.02;100240.38;4995786;28;20045;-59
2023/11/14 05:05:00;;;;;;;17.60;2.50;;;;;;;18.29;51.09;100241.56;5012948;28;20034;-59
2023/11/14 05:07:25;;;;;;;9.32;3.05;;;;;;;18.25;50.91;100230.31;5015718;28;20494;-58
2023/11/14 05:09:50;;;;;;;16.27;2.42;;;;;;;18.28;50.85;100239.91;4999780;28;20034;-58
2023/11/14 05:12:16;;;;;;;15.98;3.20;;;;;;;18.27;50.66;100249.06;5017127;28;20037;-58
2023/11/14 05:14:41;;;;;;;19.05;2.85;;;;;;;18.26;50.46;100259.06;5016546;28;20072;-59
2023/11/14 05:17:07;;;;;;;19.25;2.10;;;;;;;18.24;50.74;100274.69;4999204;28;20058;-58
2023/11/14 05:19:32;;;;;;;11.38;3.35;;;;;;;18.23;51.05;100264.88;5016199;28;20107;-58
2023/11/14 05:21:57;;;;;;;26.95;3.13;;;;;;;18.23;51.08;100269.50;5016181;28;20125;-58
2023/11/14 05:24:23;;;;;;;13.85;2.00;;;;;;;18.24;50.37;100271.16;5016174;28;20038;-58
2023/11/14 05:26:49;;;;;;;17.80;2.97;;;;;;;18.23;50.90;100280.34;5016188;28;20026;-59
2023/11/14 05:29:15;;;;;;;24.95;3.10;;;;;;;18.22;50.79;100268.63;4998643;28;20489;-59
2023/11/14 05:31:40;;;;;;;12.25;2.20;;;;;;;18.21;50.72;100263.41;5016359;28;20096;-58
2023/11/14 05:34:07;;;;;;;15.80;2.75;;;;;;;18.23;50.78;100267.59;5016107;28;20030;-59
2023/11/14 05:36:35;;;;;;;17.77;2.63;;;;;;;18.25;50.96;100262.00;5015886;28;20030;-58
2023/11/14 05:39:00;;;;;;;15.82;2.08;;;;;;;18.26;50.64;100258.22;5016157;28;20034;-58
2023/11/14 05:41:25;;;;;;;25.23;2.50;;;;;;;18.27;50.41;100281.59;4998415;28;20040;-58
2023/11/14 05:43:51;;;;;;;11.32;2.38;;;;;;;18.24;50.64;100280.13;4998465;28;20047;-59
2023/11/14 05:46:17;;;;;;;13.80;3.60;;;;;;;18.23;50.28;100285.75;5016097;28;20041;-59
2023/11/14 05:48:42;;;;;;;11.23;2.35;;;;;;;18.23;50.62;100274.91;5015778;28;20486;-59
2023/11/14 05:51:08;;;;;;;15.75;2.67;;;;;;;18.23;50.74;100273.00;5016400;28;20045;-58
2023/11/14 05:53:33;;;;;;;9.68;2.45;;;;;;;18.25;50.57;100260.13;4998869;28;20479;-58
2023/11/14 05:55:59;;;;;;;13.77;2.60;;;;;;;18.25;50.50;100259.28;5015896;28;20540;-59
2023/11/14 05:58:24;;;;;;;14.70;2.67;;;;;;;18.23;51.03;100259.44;5015954;28;20092;-58
2023/11/14 06:00:50;;;;;;;15.63;3.25;;;;;;;18.21;50.69;100266.94;4998341;28;20028;-58
2023/11/14 06:03:16;;;;;;;20.00;3.17;;;;;;;18.22;50.58;100262.38;5015694;28;20140;-58
2023/11/14 06:05:41;;;;;;;12.10;3.70;;;;;;;18.21;51.23;100271.53;5015864;28;20053;-58
2023/11/14 06:08:07;;;;;;;16.35;3.13;;;;;;;18.21;50.70;100293.22;5015581;28;20417;-58
2023/11/14 06:10:32;;;;;;;16.55;2.05;;;;;;;18.22;51.43;100278.63;5015394;28;20030;-59
2023/11/14 06:12:58;;;;;;;19.85;3.60;;;;;;;18.22;50.95;100267.78;5015292;28;20053;-58
2023/11/14 06:15:24;;;;;;;8.70;1.92;;;;;;;18.24;51.36;100261.16;5015294;28;20037;-59
2023/11/14 06:17:49;;;;;;;15.93;2.40;;;;;;;18.25;50.71;100267.41;4996392;28;20049;-58
2023/11/14 06:20:15;;;;;;;16.67;4.43;;;;;;;18.22;50.63;100259.66;5015260;28;20033;-58
2023/11/14 06:22:41;;;;;;;18.58;2.83;;;;;;;18.22;50.46;100284.91;5015135;28;20379;-59
2023/11/14 06:25:07;;;;;;;14.55;2.95;;;;;;;18.20;50.86;100308.63;5015188;28;20038;-59
2023/11/14 06:27:33;;;;;;;16.55;2.25;;;;;;;18.19;51.01;100306.13;5015411;28;20168;-59
2023/11/14 06:29:58;;;;;;;14.80;2.33;;;;;;;18.19;50.78;100295.28;5015045;28;20488;-59
2023/11/14 06:32:25;;;;;;;14.90;2.60;;;;;;;18.21;50.14;100291.34;4997579;28;20428;-58
2023/11/14 06:34:51;;;;;;;21.10;3.00;;;;;;;18.22;50.89;100294.91;5014973;28;20489;-59
2023/11/14 06:37:16;;;;;;;17.80;2.83;;;;;;;18.22;50.66;100292.19;5014645;28;20049;-58
2023/11/14 06:39:41;;;;;;;21.33;2.50;;;;;;;18.23;50.88;100291.19;5014957;28;20034;-58
2023/11/14 06:42:07;;;;;;;13.68;3.00;;;;;;;18.22;51.01;100278.63;5014781;28;20508;-59
2023/11/14 06:44:35;;;;;;;11.93;2.30;;;;;;;18.24;50.82;100282.00;5015343;28;20045;-59
2023/11/14 06:47:02;;;;;;;15.63;2.35;;;;;;;18.24;51.15;100276.56;5030868;28;20036;-59
2023/11/14 06:49:27;;;;;;;19.83;3.92;;;;;;;18.23;51.21;100292.00;5017315;28;20083;-59
2023/11/14 06:51:53;;;;;;;14.48;2.80;;;;;;;18.25;51.17;100305.38;5034694;28;20033;-59
2023/11/14 06:54:18;;;;;;;14.15;2.20;;;;;;;18.23;50.79;100296.59;5034588;28;20036;-58
2023/11/14 06:56:43;;;;;;;15.40;2.95;;;;;;;18.23;50.70;100310.16;5034070;28;20043;-58
2023/11/14 06:59:09;;;;;;;13.32;2.67;;;;;;;18.25;50.86;100332.50;5034284;28;20065;-59
2023/11/14 07:01:35;;;;;;;12.88;2.97;;;;;;;18.26;50.92;100331.44;5027101;28;20060;-58
2023/11/14 07:04:00;;;;;;;17.27;2.33;;;;;;;18.27;50.63;100331.25;5034243;28;20053;-59
2023/11/14 07:06:26;;;;;;;12.43;2.40;;;;;;;18.28;50.34;100332.97;5027835;28;20576;-58
2023/11/14 07:08:53;;;;;;;16.98;2.42;;;;;;;18.30;50.78;100338.16;5014321;28;20117;-60
2023/11/14 07:11:18;;;;;;;10.57;2.15;;;;;;;18.31;50.56;100338.00;5014806;28;20116;-58
2023/11/14 07:13:43;;;;;;;14.05;1.83;;;;;;;18.32;50.55;100323.38;5027746;28;20443;-58
2023/11/14 07:16:09;;;;;;;12.55;3.75;;;;;;;18.32;51.06;100317.97;5033920;28;20491;-58
2023/11/14 07:18:35;;;;;;;7.80;2.05;;;;;;;18.35;51.13;100317.59;5033525;28;20045;-58
2023/11/14 07:21:01;;;;;;;22.52;3.20;;;;;;;18.38;50.86;100311.78;5033407;28;20045;-58
2023/11/14 07:23:26;;;;;;;12.48;2.50;;;;;;;18.39;50.74;100305.34;5018368;28;20087;-59
2023/11/14 07:25:52;;;;;;;14.43;2.58;;;;;;;18.42;50.82;100295.97;5014051;28;20049;-58
2023/11/14 07:28:18;;;;;;;7.15;2.13;;;;;;;18.45;50.79;100284.75;5013916;28;20038;-58
2023/11/14 07:30:44;;;;;;;10.32;2.38;;;;;;;18.47;50.70;100282.66;5013665;28;20077;-58
2023/11/14 07:33:09;;;;;;;11.75;1.95;;;;;;;18.49;51.00;100286.03;5013821;28;20552;-58
2023/11/14 07:35:37;;;;;;;14.20;2.97;;;;;;;18.52;51.03;100281.09;5014086;28;20398;-59
2023/11/14 07:38:04;;;;;;;10.70;1.38;;;;;;;18.57;50.61;100288.63;5013869;28;20037;-58
2023/11/14 07:40:30;;;;;;;6.10;2.05;;;;;;;18.58;50.61;100290.31;5013881;28;20099;-58
2023/11/14 07:42:56;;;;;;;13.82;2.35;;;;;;;18.60;50.96;100296.38;5013662;28;20030;-58
2023/11/14 07:45:21;;;;;;;7.70;2.08;;;;;;;18.63;50.63;100298.72;5014012;28;20405;-59
2023/11/14 07:47:47;;;;;;;19.77;2.47;;;;;;;18.69;50.46;100297.09;5013815;28;20391;-58
2023/11/14 07:50:12;;;;;;;14.32;3.00;;;;;;;18.71;50.50;100295.84;5013714;28;20042;-58
2023/11/14 07:52:37;;;;;;;9.02;1.60;;;;;;;18.70;50.86;100298.78;5013599;28;20442;-58
2023/11/14 07:55:03;;;;;;;13.15;2.58;;;;;;;18.72;50.68;100294.84;5013700;28;20057;-58
2023/11/14 07:57:30;;;;;;;10.23;2.42;;;;;;;18.78;50.49;100288.63;4996016;28;20048;-59
2023/11/14 07:59:56;;;;;;;9.15;2.78;;;;;;;18.82;50.99;100292.63;5013492;28;20176;-58
2023/11/14 08:02:21;;;;;;;12.15;2.08;;;;;;;18.80;51.00;100302.84;5013543;28;20061;-58
2023/11/14 08:04:46;;;;;;;9.75;1.77;;;;;;;18.80;50.77;100305.56;5014902;28;20107;-58
2023/11/14 08:07:12;;;;;;;14.13;1.80;;;;;;;18.78;50.52;100307.63;5015774;28;20429;-58
2023/11/14 08:09:37;;;;;;;12.60;3.22;;;;;;;18.76;50.72;100320.53;5017401;28;20541;-58
2023/11/14 08:12:03;;;;;;;16.92;2.22;;;;;;;18.79;50.59;100324.75;5017885;28;20060;-58
2023/11/14 08:14:28;;;;;;;18.77;2.50;;;;;;;18.84;50.81;100319.59;5016774;28;20030;-59
2023/11/14 08:16:54;;;;;;;14.20;2.00;;;;;;;18.90;50.42;100322.34;5031901;28;20575;-60
2023/11/14 08:19:20;;;;;;;14.02;2.38;;;;;;;18.92;50.47;100314.84;5032989;28;20034;-59
2023/11/14 08:21:45;;;;;;;13.25;2.65;;;;;;;18.98;50.53;100316.75;5032755;28;20447;-59
2023/11/14 08:24:11;;;;;;;7.57;1.75;;;;;;;18.93;50.68;100297.50;5015310;28;20116;-59
2023/11/14 08:26:36;;;;;;;9.18;2.42;;;;;;;19.05;50.50;100305.97;5032944;28;20134;-58
2023/11/14 08:29:01;;;;;;;16.83;3.88;;;;;;;19.08;50.17;100306.41;5032933;28;20501;-59
2023/11/14 08:31:27;;;;;;;8.77;2.13;;;;;;;19.11;51.07;100303.31;5032935;28;20068;-59
2023/11/14 08:33:52;;;;;;;10.88;2.17;;;;;;;19.10;50.37;100293.47;5033150;28;20168;-59
2023/11/14 08:36:18;;;;;;;11.63;2.13;;;;;;;19.19;50.43;100297.72;5033033;28;20408;-59
2023/11/14 08:38:43;;;;;;;6.65;1.98;;;;;;;19.26;50.24;100288.81;5032788;28;20520;-58
2023/11/14 08:41:08;;;;;;;10.40;1.88;;;;;;;19.31;50.54;100286.31;5016199;28;20467;-59
2023/11/14 08:43:34;;;;;;;17.65;2.08;;;;;;;19.34;50.47;100302.22;5037002;28;20496;-59
2023/11/14 08:45:59;;;;;;;15.27;2.55;;;;;;;19.35;50.35;100312.03;5036897;28;20043;-58
2023/11/14 08:48:25;;;;;;;12.90;2.60;;;;;;;19.35;49.85;100314.75;5036698;28;20049;-59
2023/11/14 08:50:50;;;;;;;16.98;2.40;;;;;;;19.32;50.04;100320.59;5036648;28;20034;-59
2023/11/14 08:53:17;;;;;;;12.15;2.35;;;;;;;19.32;50.66;100339.63;5036664;28;20056;-59
2023/11/14 08:55:42;;;;;;;20.48;2.72;;;;;;;19.27;50.55;100339.34;5036524;28;20516;-59
2023/11/14 08:58:07;;;;;;;17.05;3.08;;;;;;;19.28;50.61;100332.88;5036414;28;20045;-58
2023/11/14 09:00:33;;;;;;;8.30;2.25;;;;;;;19.27;50.05;100339.34;5036633;28;20041;-58
2023/11/14 09:03:01;;;;;;;14.82;2.65;;;;;;;19.26;50.96;100316.81;5036538;28;20041;-59
2023/11/14 09:05:27;;;;;;;12.50;1.95;;;;;;;19.27;50.58;100307.59;5036405;28;20120;-59
2023/11/14 09:07:53;;;;;;;21.02;3.08;;;;;;;19.26;50.11;100321.38;5036388;28;20033;-59
2023/11/14 09:10:19;;;;;;;14.63;2.03;;;;;;;19.24;50.70;100318.84;5036290;28;20040;-58
2023/11/14 09:12:45;;;;;;;12.07;2.83;;;;;;;19.22;50.28;100309.22;5018890;28;20037;-59
2023/11/14 09:15:13;;;;;;;13.13;2.05;;;;;;;19.27;50.58;100317.63;5036160;28;20040;-59
2023/11/14 09:17:39;;;;;;;14.02;1.85;;;;;;;19.31;50.37;100308.06;5036102;28;20043;-59
2023/11/14 09:20:05;;;;;;;16.42;3.90;;;;;;;19.34;50.67;100318.53;5018559;28;20041;-59
2023/11/14 09:22:31;;;;;;;11.70;1.80;;;;;;;19.34;50.45;100321.25;5035861;28;20565;-58
2023/11/14 09:24:56;;;;;;;10.77;1.98;;;;;;;19.32;50.25;100317.88;5035860;28;20111;-59
2023/11/14 09:27:22;;;;;;;11.80;2.22;;;;;;;19.34;50.60;100313.09;5018357;28;20041;-58
2023/11/14 09:29:48;;;;;;;15.65;2.25;;;;;;;19.34;50.60;100318.53;5035933;28;20080;-60
2023/11/14 09:32:14;;;;;;;11.38;2.15;;;;;;;19.37;50.15;100335.28;5035991;28;20121;-59
2023/11/14 09:34:39;;;;;;;16.90;2.65;;;;;;;19.37;50.09;100337.97;5035822;28;20508;-58
2023/11/14 09:37:04;;;;;;;13.75;2.92;;;;;;;19.36;50.45;100332.72;5035959;28;20056;-59
2023/11/14 09:39:31;;;;;;;13.65;2.13;;;;;;;19.31;50.27;100351.50;5035649;28;20041;-59
2023/11/14 09:41:57;;;;;;;10.40;2.33;;;;;;;19.31;50.48;100354.22;5018184;28;20033;-59
2023/11/14 09:44:23;;;;;;;9.95;2.30;;;;;;;19.29;50.52;100348.16;5035783;28;20061;-58
2023/11/14 09:46:50;;;;;;;14.90;2.78;;;;;;;19.27;50.52;100356.47;5018135;28;20049;-59
2023/11/14 09:49:16;;;;;;;14.63;3.15;;;;;;;19.28;50.49;100357.31;5035677;28;20120;-59
2023/11/14 09:51:44;;;;;;;16.98;2.38;;;;;;;19.25;50.16;100358.56;5035088;28;20064;-59
2023/11/14 09:54:12;;;;;;;14.55;2.17;;;;;;;19.18;50.58;100342.22;5035375;28;20072;-62
2023/11/14 09:56:38;;;;;;;11.20;2.30;;;;;;;19.18;50.67;100335.94;5017735;28;20083;-63
2023/11/14 09:59:04;;;;;;;11.25;2.05;;;;;;;19.17;50.14;100328.84;5035429;28;20087;-63
2023/11/14 10:01:30;;;;;;;9.70;1.95;;;;;;;19.15;50.68;100342.59;5035439;28;20116;-67
2023/11/14 10:03:55;;;;;;;14.85;2.30;;;;;;;19.13;50.20;100344.69;5035290;28;20030;-67
2023/11/14 10:06:21;;;;;;;11.98;2.20;;;;;;;19.11;50.49;100338.63;5017665;28;20033;-65
2023/11/14 10:08:47;;;;;;;22.77;2.95;;;;;;;19.11;50.65;100333.19;5035215;28;20045;-66
2023/11/14 10:11:12;;;;;;;9.10;1.60;;;;;;;19.08;50.62;100325.44;5035176;28;20025;-65
2023/11/14 10:13:39;;;;;;;9.93;2.22;;;;;;;19.06;51.11;100322.06;5035144;28;20029;-65
2023/11/14 10:16:30;;;;;;;9.93;2.63;;;;;;;19.06;50.93;100323.94;5035072;28;20420;-65
2023/11/14 10:18:56;;;;;;;15.10;2.22;;;;;;;19.06;50.88;100327.50;5029776;28;21549;-66
2023/11/14 10:21:21;;;;;;;14.40;2.17;;;;;;;19.11;50.94;100325.03;5034885;28;20084;-66
2023/11/14 10:23:46;;;;;;;10.60;2.22;;;;;;;19.21;50.79;100307.56;5026200;28;20026;-65
2023/11/14 10:26:12;;;;;;;22.17;2.60;;;;;;;19.24;51.00;100320.72;5015101;28;20496;-65
2023/11/14 10:28:50;;;;;;;15.13;2.75;;;;;;;19.32;50.60;100326.03;5015032;28;20029;-66
2023/11/14 10:31:15;;;;;;;7.03;1.98;;;;;;;19.36;50.47;100319.16;5015285;28;20056;-65
2023/11/14 10:33:41;;;;;;;14.07;2.33;;;;;;;19.41;50.41;100314.00;5014871;28;20473;-65
2023/11/14 10:36:09;;;;;;;13.82;2.50;;;;;;;19.46;50.53;100314.22;5015247;28;20026;-66
2023/11/14 10:38:35;;;;;;;5.28;1.67;;;;;;;19.48;50.27;100314.88;5015092;28;20057;-66
2023/11/14 10:41:00;;;;;;;10.38;2.40;;;;;;;19.49;50.40;100302.97;5014860;28;20489;-66
2023/11/14 10:43:30;;;;;;;13.25;2.15;;;;;;;19.53;50.75;100274.38;5015024;28;20026;-66
2023/11/14 10:45:59;;;;;;;10.60;3.22;;;;;;;19.59;50.74;100271.69;5014904;28;20378;-65
2023/11/14 10:48:25;;;;;;;11.93;1.90;;;;;;;19.64;50.53;100269.22;5014722;28;20084;-66
2023/11/14 10:50:51;;;;;;;10.48;1.85;;;;;;;19.65;50.90;100278.22;5014920;28;20026;-65
2023/11/14 10:53:17;;;;;;;9.50;1.52;;;;;;;19.63;50.52;100285.69;5014470;28;20032;-66
2023/11/14 10:55:43;;;;;;;8.23;1.52;;;;;;;19.54;50.64;100303.22;5014955;28;20026;-65
2023/11/14 10:58:09;;;;;;;3.92;1.23;;;;;;;19.43;51.02;100293.72;5014562;28;20042;-63
2023/11/14 11:00:35;;;;;;;4.95;2.30;;;;;;;19.34;50.40;100308.50;5014477;28;20026;-66
2023/11/14 11:03:00;;;;;;;5.28;1.08;;;;;;;19.26;50.99;100305.09;4997044;28;20068;-64
2023/11/14 11:05:31;;;;;;;4.53;1.02;;;;;;;19.17;50.62;100291.66;5013928;28;20095;-58
2023/11/14 11:08:07;;;;;;;7.72;1.33;;;;;;;19.09;50.87;100304.56;5014533;28;20042;-58
2023/11/14 11:10:34;;;;;;;8.48;2.08;;;;;;;19.01;51.37;100305.50;5014447;28;20079;-58
2023/11/14 11:13:02;;;;;;;4.95;1.52;;;;;;;18.94;51.51;100301.06;4996731;28;20072;-59